Main page
METAR-TAF:

METAR-TAF

Airports :

Florida Keys Marathon Airport

Marathon, Florida, United States

latitude: 24-43-33N, longitude: 081-02-52W, elevation: 7 ft

Current weather observation

The report was made 26 minutes ago, at 06:53 UTC
Wind 13 mph from the East with gusts up to 21 mph
Temperature 79°F
Humidity 58%
Pressure 30.02 in. Hg
Visibility: 10 miles
Few clouds at a height of 3900 ft

METAR: KMTH 180653Z AUTO 09011G18KT 10SM FEW039 26/17 A3002 RMK AO2 SLP166 T02560172

Time: 03:19 (07:19 UTC)

Forecast

The report was made 1 hour and 39 minutes ago, at 05:40 UTC
Forecast valid from 18 at 06 UTC to 19 at 06 UTC
Wind 12 mph from the East with gusts up to 20 mph
Visibility: 6 miles
Few clouds at a height of 3500 ft
From 18 at 1500 UTC
Wind 17 mph from the East with gusts up to 26 mph
Visibility: 6 miles
Scattered clouds at a height of 3500 ft

TAF: KMTH 180540Z 1806/1906 08010G17KT P6SM FEW035 FM181500 08015G23KT P6SM SCT035

Weather observations and forecasts of more than 4000 airports (METAR and TAF reports).

The available stations are represented by yellow and red dots on the map.

Hover mouse over dot to see the name of the station.

Then click to see weather observations and forecasts.

To change the map : click on the green buttons with a black cross to zoom in, on the green button with a dash to zoom out, or on the green arrows for adjacent maps.


METAR-TAF: